sensor_id;sensor_type;location;lat;lon;timestamp;P1;durP1;ratioP1;P2;durP2;ratioP2
75171;SDS011;63750;52.418;20.742;2023-06-26T00:02:21;11.60;;;10.50;;
75171;SDS011;63750;52.418;20.742;2023-06-26T00:04:49;10.50;;;9.50;;
75171;SDS011;63750;52.418;20.742;2023-06-26T00:07:17;10.90;;;9.80;;
75171;SDS011;63750;52.418;20.742;2023-06-26T00:09:45;11.40;;;10.30;;
75171;SDS011;63750;52.418;20.742;2023-06-26T00:12:13;11.70;;;9.40;;
75171;SDS011;63750;52.418;20.742;2023-06-26T00:14:41;13.50;;;10.60;;
75171;SDS011;63750;52.418;20.742;2023-06-26T00:17:10;10.30;;;9.30;;
75171;SDS011;63750;52.418;20.742;2023-06-26T00:19:39;10.90;;;9.80;;
75171;SDS011;63750;52.418;20.742;2023-06-26T00:22:07;11.20;;;10.00;;
75171;SDS011;63750;52.418;20.742;2023-06-26T00:24:35;11.00;;;9.60;;
75171;SDS011;63750;52.418;20.742;2023-06-26T00:27:03;10.90;;;9.50;;
75171;SDS011;63750;52.418;20.742;2023-06-26T00:29:32;10.20;;;9.20;;
75171;SDS011;63750;52.418;20.742;2023-06-26T00:32:00;9.70;;;8.80;;
75171;SDS011;63750;52.418;20.742;2023-06-26T00:34:28;11.90;;;9.70;;
75171;SDS011;63750;52.418;20.742;2023-06-26T00:36:56;11.10;;;9.60;;
75171;SDS011;63750;52.418;20.742;2023-06-26T00:39:24;10.00;;;8.60;;
75171;SDS011;63750;52.418;20.742;2023-06-26T00:41:53;9.90;;;8.90;;
75171;SDS011;63750;52.418;20.742;2023-06-26T00:44:21;10.60;;;9.50;;
75171;SDS011;63750;52.418;20.742;2023-06-26T00:46:49;9.70;;;8.70;;
75171;SDS011;63750;52.418;20.742;2023-06-26T00:49:18;10.00;;;9.00;;
75171;SDS011;63750;52.418;20.742;2023-06-26T00:51:46;10.40;;;8.90;;
75171;SDS011;63750;52.418;20.742;2023-06-26T00:54:15;10.00;;;9.10;;
75171;SDS011;63750;52.418;20.742;2023-06-26T00:56:43;10.00;;;8.50;;
75171;SDS011;63750;52.418;20.742;2023-06-26T00:59:13;10.60;;;9.50;;
75171;SDS011;63750;52.418;20.742;2023-06-26T01:01:41;10.60;;;9.60;;
75171;SDS011;63750;52.418;20.742;2023-06-26T01:04:09;9.50;;;8.60;;
75171;SDS011;63750;52.418;20.742;2023-06-26T01:06:37;10.30;;;9.20;;
75171;SDS011;63750;52.418;20.742;2023-06-26T01:09:06;10.60;;;9.50;;
75171;SDS011;63750;52.418;20.742;2023-06-26T01:11:34;10.30;;;9.20;;
75171;SDS011;63750;52.418;20.742;2023-06-26T01:14:02;10.00;;;9.00;;
75171;SDS011;63750;52.418;20.742;2023-06-26T01:16:30;11.90;;;9.70;;
75171;SDS011;63750;52.418;20.742;2023-06-26T01:18:59;10.30;;;9.40;;
75171;SDS011;63750;52.418;20.742;2023-06-26T01:21:28;10.80;;;9.40;;
75171;SDS011;63750;52.418;20.742;2023-06-26T01:23:58;10.80;;;9.60;;
75171;SDS011;63750;52.418;20.742;2023-06-26T01:26:33;10.80;;;9.80;;
75171;SDS011;63750;52.418;20.742;2023-06-26T01:29:03;9.90;;;8.90;;
75171;SDS011;63750;52.418;20.742;2023-06-26T01:31:34;10.20;;;9.10;;
75171;SDS011;63750;52.418;20.742;2023-06-26T01:34:03;10.70;;;9.60;;
75171;SDS011;63750;52.418;20.742;2023-06-26T01:36:31;12.20;;;9.40;;
75171;SDS011;63750;52.418;20.742;2023-06-26T01:39:00;10.20;;;9.10;;
75171;SDS011;63750;52.418;20.742;2023-06-26T01:41:28;11.50;;;9.50;;
75171;SDS011;63750;52.418;20.742;2023-06-26T01:44:01;11.60;;;10.10;;
75171;SDS011;63750;52.418;20.742;2023-06-26T01:46:36;11.00;;;9.90;;
75171;SDS011;63750;52.418;20.742;2023-06-26T01:49:14;11.60;;;10.10;;
75171;SDS011;63750;52.418;20.742;2023-06-26T01:51:49;11.50;;;10.40;;
75171;SDS011;63750;52.418;20.742;2023-06-26T01:54:22;11.90;;;10.70;;
75171;SDS011;63750;52.418;20.742;2023-06-26T01:56:55;11.30;;;10.30;;
75171;SDS011;63750;52.418;20.742;2023-06-26T01:59:25;11.50;;;10.30;;
75171;SDS011;63750;52.418;20.742;2023-06-26T02:01:58;11.30;;;10.20;;
75171;SDS011;63750;52.418;20.742;2023-06-26T02:04:28;11.40;;;10.30;;
75171;SDS011;63750;52.418;20.742;2023-06-26T02:06:56;11.00;;;9.90;;
75171;SDS011;63750;52.418;20.742;2023-06-26T02:09:24;11.00;;;9.90;;
75171;SDS011;63750;52.418;20.742;2023-06-26T02:11:52;11.50;;;10.30;;
75171;SDS011;63750;52.418;20.742;2023-06-26T02:14:21;10.80;;;9.80;;
75171;SDS011;63750;52.418;20.742;2023-06-26T02:16:49;10.50;;;9.50;;
75171;SDS011;63750;52.418;20.742;2023-06-26T02:19:17;11.90;;;10.70;;
75171;SDS011;63750;52.418;20.742;2023-06-26T02:21:45;10.60;;;9.50;;
75171;SDS011;63750;52.418;20.742;2023-06-26T02:24:13;11.00;;;9.90;;
75171;SDS011;63750;52.418;20.742;2023-06-26T02:26:41;11.60;;;10.40;;
75171;SDS011;63750;52.418;20.742;2023-06-26T02:29:09;11.40;;;10.30;;
75171;SDS011;63750;52.418;20.742;2023-06-26T02:31:38;12.30;;;10.60;;
75171;SDS011;63750;52.418;20.742;2023-06-26T02:34:06;11.60;;;10.50;;
75171;SDS011;63750;52.418;20.742;2023-06-26T02:36:34;12.20;;;11.00;;
75171;SDS011;63750;52.418;20.742;2023-06-26T02:39:02;10.00;;;9.00;;
75171;SDS011;63750;52.418;20.742;2023-06-26T02:41:30;11.90;;;10.50;;
75171;SDS011;63750;52.418;20.742;2023-06-26T02:43:59;11.70;;;10.60;;
75171;SDS011;63750;52.418;20.742;2023-06-26T02:46:27;11.30;;;10.20;;
75171;SDS011;63750;52.418;20.742;2023-06-26T02:48:55;11.50;;;10.30;;
75171;SDS011;63750;52.418;20.742;2023-06-26T02:51:23;11.90;;;10.40;;
75171;SDS011;63750;52.418;20.742;2023-06-26T02:53:51;11.30;;;10.10;;
75171;SDS011;63750;52.418;20.742;2023-06-26T02:56:19;11.10;;;10.00;;
75171;SDS011;63750;52.418;20.742;2023-06-26T02:58:47;12.40;;;10.60;;
75171;SDS011;63750;52.418;20.742;2023-06-26T03:01:15;11.30;;;10.20;;
75171;SDS011;63750;52.418;20.742;2023-06-26T03:03:44;11.10;;;10.10;;
75171;SDS011;63750;52.418;20.742;2023-06-26T03:06:12;12.00;;;10.80;;
75171;SDS011;63750;52.418;20.742;2023-06-26T03:08:40;12.50;;;11.20;;
75171;SDS011;63750;52.418;20.742;2023-06-26T03:11:08;11.80;;;10.60;;
75171;SDS011;63750;52.418;20.742;2023-06-26T03:13:37;11.90;;;10.80;;
75171;SDS011;63750;52.418;20.742;2023-06-26T03:16:05;11.20;;;10.00;;
75171;SDS011;63750;52.418;20.742;2023-06-26T03:18:33;11.10;;;10.00;;
75171;SDS011;63750;52.418;20.742;2023-06-26T03:21:01;12.80;;;11.10;;
75171;SDS011;63750;52.418;20.742;2023-06-26T03:23:29;11.50;;;10.40;;
75171;SDS011;63750;52.418;20.742;2023-06-26T03:25:58;13.00;;;11.60;;
75171;SDS011;63750;52.418;20.742;2023-06-26T03:28:26;13.40;;;11.80;;
75171;SDS011;63750;52.418;20.742;2023-06-26T03:30:54;12.10;;;11.00;;
75171;SDS011;63750;52.418;20.742;2023-06-26T03:33:22;12.50;;;11.20;;
75171;SDS011;63750;52.418;20.742;2023-06-26T03:35:51;12.60;;;11.40;;
75171;SDS011;63750;52.418;20.742;2023-06-26T03:38:19;12.40;;;11.10;;
75171;SDS011;63750;52.418;20.742;2023-06-26T03:40:48;11.40;;;10.20;;
75171;SDS011;63750;52.418;20.742;2023-06-26T03:43:16;11.60;;;10.40;;
75171;SDS011;63750;52.418;20.742;2023-06-26T03:45:44;12.20;;;10.30;;
75171;SDS011;63750;52.418;20.742;2023-06-26T03:48:12;10.70;;;9.70;;
75171;SDS011;63750;52.418;20.742;2023-06-26T03:50:40;12.00;;;10.10;;
75171;SDS011;63750;52.418;20.742;2023-06-26T03:53:08;12.20;;;10.80;;
75171;SDS011;63750;52.418;20.742;2023-06-26T03:55:37;11.70;;;9.80;;
75171;SDS011;63750;52.418;20.742;2023-06-26T03:58:05;10.60;;;9.50;;
75171;SDS011;63750;52.418;20.742;2023-06-26T04:00:33;11.70;;;10.50;;
75171;SDS011;63750;52.418;20.742;2023-06-26T04:03:01;11.10;;;10.00;;
75171;SDS011;63750;52.418;20.742;2023-06-26T04:05:29;11.40;;;10.20;;
75171;SDS011;63750;52.418;20.742;2023-06-26T04:07:57;11.50;;;10.20;;
75171;SDS011;63750;52.418;20.742;2023-06-26T04:10:25;11.80;;;10.50;;
75171;SDS011;63750;52.418;20.742;2023-06-26T04:12:53;11.10;;;9.90;;
75171;SDS011;63750;52.418;20.742;2023-06-26T04:15:21;11.70;;;10.50;;
75171;SDS011;63750;52.418;20.742;2023-06-26T04:17:49;11.90;;;10.00;;
75171;SDS011;63750;52.418;20.742;2023-06-26T04:20:17;9.90;;;8.90;;
75171;SDS011;63750;52.418;20.742;2023-06-26T04:22:45;11.90;;;10.60;;
75171;SDS011;63750;52.418;20.742;2023-06-26T04:25:14;11.80;;;9.80;;
75171;SDS011;63750;52.418;20.742;2023-06-26T04:27:42;10.20;;;9.30;;
75171;SDS011;63750;52.418;20.742;2023-06-26T04:30:12;11.50;;;10.30;;
75171;SDS011;63750;52.418;20.742;2023-06-26T04:32:41;10.80;;;9.70;;
75171;SDS011;63750;52.418;20.742;2023-06-26T04:35:09;10.80;;;9.70;;
75171;SDS011;63750;52.418;20.742;2023-06-26T04:37:37;12.50;;;11.20;;
75171;SDS011;63750;52.418;20.742;2023-06-26T04:40:06;12.30;;;11.10;;
75171;SDS011;63750;52.418;20.742;2023-06-26T04:42:35;10.90;;;9.80;;
75171;SDS011;63750;52.418;20.742;2023-06-26T04:45:03;11.40;;;10.20;;
75171;SDS011;63750;52.418;20.742;2023-06-26T04:47:33;12.50;;;11.20;;
75171;SDS011;63750;52.418;20.742;2023-06-26T04:50:01;11.40;;;10.30;;
75171;SDS011;63750;52.418;20.742;2023-06-26T04:52:29;10.40;;;9.40;;
75171;SDS011;63750;52.418;20.742;2023-06-26T04:54:57;11.20;;;10.10;;
75171;SDS011;63750;52.418;20.742;2023-06-26T04:57:25;10.80;;;9.70;;
75171;SDS011;63750;52.418;20.742;2023-06-26T04:59:53;10.20;;;9.10;;
75171;SDS011;63750;52.418;20.742;2023-06-26T05:02:21;10.80;;;9.80;;
75171;SDS011;63750;52.418;20.742;2023-06-26T05:04:50;10.40;;;9.50;;
75171;SDS011;63750;52.418;20.742;2023-06-26T05:07:18;11.30;;;10.20;;
75171;SDS011;63750;52.418;20.742;2023-06-26T05:09:46;11.10;;;10.00;;
75171;SDS011;63750;52.418;20.742;2023-06-26T05:12:14;12.20;;;11.00;;
75171;SDS011;63750;52.418;20.742;2023-06-26T05:14:42;11.80;;;10.70;;
75171;SDS011;63750;52.418;20.742;2023-06-26T05:17:10;11.20;;;10.20;;
75171;SDS011;63750;52.418;20.742;2023-06-26T05:19:40;12.60;;;11.30;;
75171;SDS011;63750;52.418;20.742;2023-06-26T05:22:09;10.80;;;9.70;;
75171;SDS011;63750;52.418;20.742;2023-06-26T05:24:38;11.50;;;8.80;;
75171;SDS011;63750;52.418;20.742;2023-06-26T05:27:08;10.50;;;9.20;;
75171;SDS011;63750;52.418;20.742;2023-06-26T05:29:38;10.00;;;9.10;;
75171;SDS011;63750;52.418;20.742;2023-06-26T05:32:08;10.00;;;9.00;;
75171;SDS011;63750;52.418;20.742;2023-06-26T05:34:37;10.80;;;9.70;;
75171;SDS011;63750;52.418;20.742;2023-06-26T05:37:06;11.10;;;10.00;;
75171;SDS011;63750;52.418;20.742;2023-06-26T05:39:36;10.00;;;9.00;;
75171;SDS011;63750;52.418;20.742;2023-06-26T05:42:05;9.70;;;8.70;;
75171;SDS011;63750;52.418;20.742;2023-06-26T05:44:35;9.60;;;8.70;;
75171;SDS011;63750;52.418;20.742;2023-06-26T05:47:03;12.80;;;11.50;;
75171;SDS011;63750;52.418;20.742;2023-06-26T05:49:33;10.30;;;9.30;;
75171;SDS011;63750;52.418;20.742;2023-06-26T05:52:02;9.70;;;8.80;;
75171;SDS011;63750;52.418;20.742;2023-06-26T05:54:31;9.80;;;8.90;;
75171;SDS011;63750;52.418;20.742;2023-06-26T05:57:00;9.00;;;8.00;;
75171;SDS011;63750;52.418;20.742;2023-06-26T05:59:29;9.60;;;8.60;;
75171;SDS011;63750;52.418;20.742;2023-06-26T06:01:59;10.20;;;8.80;;
75171;SDS011;63750;52.418;20.742;2023-06-26T06:04:27;10.30;;;9.30;;
75171;SDS011;63750;52.418;20.742;2023-06-26T06:06:55;9.30;;;8.40;;
75171;SDS011;63750;52.418;20.742;2023-06-26T06:09:23;10.00;;;9.00;;
75171;SDS011;63750;52.418;20.742;2023-06-26T06:11:51;8.80;;;8.00;;
75171;SDS011;63750;52.418;20.742;2023-06-26T06:14:19;8.90;;;8.10;;
75171;SDS011;63750;52.418;20.742;2023-06-26T06:16:47;11.50;;;8.80;;
75171;SDS011;63750;52.418;20.742;2023-06-26T06:19:15;10.00;;;9.00;;
75171;SDS011;63750;52.418;20.742;2023-06-26T06:21:43;12.60;;;8.30;;
75171;SDS011;63750;52.418;20.742;2023-06-26T06:24:11;9.70;;;8.30;;
75171;SDS011;63750;52.418;20.742;2023-06-26T06:26:40;9.80;;;8.80;;
75171;SDS011;63750;52.418;20.742;2023-06-26T06:29:08;10.60;;;8.80;;
75171;SDS011;63750;52.418;20.742;2023-06-26T06:31:36;10.80;;;8.80;;
75171;SDS011;63750;52.418;20.742;2023-06-26T06:34:04;9.10;;;8.20;;
75171;SDS011;63750;52.418;20.742;2023-06-26T06:36:32;11.10;;;8.50;;
75171;SDS011;63750;52.418;20.742;2023-06-26T06:39:00;10.20;;;8.20;;
75171;SDS011;63750;52.418;20.742;2023-06-26T06:41:28;9.70;;;8.10;;
75171;SDS011;63750;52.418;20.742;2023-06-26T06:43:56;9.10;;;8.20;;
75171;SDS011;63750;52.418;20.742;2023-06-26T06:46:24;10.40;;;8.00;;
75171;SDS011;63750;52.418;20.742;2023-06-26T06:48:52;10.50;;;8.50;;
75171;SDS011;63750;52.418;20.742;2023-06-26T06:51:20;8.50;;;7.30;;
75171;SDS011;63750;52.418;20.742;2023-06-26T06:53:48;7.80;;;7.10;;
75171;SDS011;63750;52.418;20.742;2023-06-26T06:56:16;10.30;;;7.10;;
75171;SDS011;63750;52.418;20.742;2023-06-26T06:58:45;9.80;;;7.70;;
75171;SDS011;63750;52.418;20.742;2023-06-26T07:01:13;8.40;;;7.20;;
75171;SDS011;63750;52.418;20.742;2023-06-26T07:03:41;8.60;;;7.50;;
75171;SDS011;63750;52.418;20.742;2023-06-26T07:06:09;8.00;;;7.10;;
75171;SDS011;63750;52.418;20.742;2023-06-26T07:08:37;8.10;;;6.70;;
75171;SDS011;63750;52.418;20.742;2023-06-26T07:11:05;7.10;;;6.40;;
75171;SDS011;63750;52.418;20.742;2023-06-26T07:13:33;9.80;;;6.80;;
75171;SDS011;63750;52.418;20.742;2023-06-26T07:16:01;6.40;;;5.80;;
75171;SDS011;63750;52.418;20.742;2023-06-26T07:18:30;6.90;;;6.30;;
75171;SDS011;63750;52.418;20.742;2023-06-26T07:20:58;7.40;;;6.70;;
75171;SDS011;63750;52.418;20.742;2023-06-26T07:23:26;8.00;;;6.80;;
75171;SDS011;63750;52.418;20.742;2023-06-26T07:25:54;7.90;;;6.80;;
75171;SDS011;63750;52.418;20.742;2023-06-26T07:28:23;9.80;;;6.90;;
75171;SDS011;63750;52.418;20.742;2023-06-26T07:30:51;8.00;;;6.80;;
75171;SDS011;63750;52.418;20.742;2023-06-26T07:33:19;8.70;;;6.80;;
75171;SDS011;63750;52.418;20.742;2023-06-26T07:35:47;8.70;;;6.80;;
75171;SDS011;63750;52.418;20.742;2023-06-26T07:38:15;8.40;;;7.20;;
75171;SDS011;63750;52.418;20.742;2023-06-26T07:40:43;7.20;;;6.50;;
75171;SDS011;63750;52.418;20.742;2023-06-26T07:43:11;8.00;;;6.70;;
75171;SDS011;63750;52.418;20.742;2023-06-26T07:45:40;7.70;;;6.60;;
75171;SDS011;63750;52.418;20.742;2023-06-26T07:48:08;7.90;;;7.10;;
75171;SDS011;63750;52.418;20.742;2023-06-26T07:50:36;6.50;;;5.90;;
75171;SDS011;63750;52.418;20.742;2023-06-26T07:53:04;7.20;;;6.50;;
75171;SDS011;63750;52.418;20.742;2023-06-26T07:55:33;8.40;;;6.70;;
75171;SDS011;63750;52.418;20.742;2023-06-26T07:58:01;8.40;;;6.80;;
75171;SDS011;63750;52.418;20.742;2023-06-26T08:00:29;7.60;;;6.80;;
75171;SDS011;63750;52.418;20.742;2023-06-26T08:02:57;7.10;;;6.50;;
75171;SDS011;63750;52.418;20.742;2023-06-26T08:05:25;7.40;;;6.40;;
75171;SDS011;63750;52.418;20.742;2023-06-26T08:07:53;7.80;;;6.40;;
75171;SDS011;63750;52.418;20.742;2023-06-26T08:10:21;6.70;;;6.00;;
75171;SDS011;63750;52.418;20.742;2023-06-26T08:12:49;6.80;;;6.20;;
75171;SDS011;63750;52.418;20.742;2023-06-26T08:15:17;6.70;;;6.10;;
75171;SDS011;63750;52.418;20.742;2023-06-26T08:17:45;7.00;;;6.30;;
75171;SDS011;63750;52.418;20.742;2023-06-26T08:20:14;6.90;;;6.20;;
75171;SDS011;63750;52.418;20.742;2023-06-26T08:22:42;6.70;;;6.10;;
75171;SDS011;63750;52.418;20.742;2023-06-26T08:25:10;7.30;;;6.60;;
75171;SDS011;63750;52.418;20.742;2023-06-26T08:27:38;8.70;;;6.30;;
75171;SDS011;63750;52.418;20.742;2023-06-26T08:30:07;6.50;;;5.90;;
75171;SDS011;63750;52.418;20.742;2023-06-26T08:32:35;6.50;;;5.80;;
75171;SDS011;63750;52.418;20.742;2023-06-26T08:35:04;7.00;;;6.30;;
75171;SDS011;63750;52.418;20.742;2023-06-26T08:37:33;5.80;;;5.30;;
75171;SDS011;63750;52.418;20.742;2023-06-26T08:40:01;6.20;;;5.50;;
75171;SDS011;63750;52.418;20.742;2023-06-26T08:42:30;6.00;;;5.40;;
75171;SDS011;63750;52.418;20.742;2023-06-26T08:44:58;6.30;;;5.70;;
75171;SDS011;63750;52.418;20.742;2023-06-26T08:47:26;5.40;;;4.90;;
75171;SDS011;63750;52.418;20.742;2023-06-26T08:49:59;5.70;;;5.20;;
75171;SDS011;63750;52.418;20.742;2023-06-26T08:52:35;6.60;;;5.60;;
75171;SDS011;63750;52.418;20.742;2023-06-26T08:55:09;5.40;;;4.90;;
75171;SDS011;63750;52.418;20.742;2023-06-26T08:57:38;5.90;;;4.70;;
75171;SDS011;63750;52.418;20.742;2023-06-26T09:00:08;5.90;;;4.90;;
75171;SDS011;63750;52.418;20.742;2023-06-26T09:02:38;7.10;;;5.40;;
75171;SDS011;63750;52.418;20.742;2023-06-26T09:05:07;5.60;;;5.10;;
75171;SDS011;63750;52.418;20.742;2023-06-26T09:07:35;5.60;;;5.20;;
75171;SDS011;63750;52.418;20.742;2023-06-26T09:10:04;5.80;;;5.30;;
75171;SDS011;63750;52.418;20.742;2023-06-26T09:12:33;6.00;;;5.40;;
75171;SDS011;63750;52.418;20.742;2023-06-26T09:15:03;6.30;;;5.70;;
75171;SDS011;63750;52.418;20.742;2023-06-26T09:17:33;5.40;;;4.90;;
75171;SDS011;63750;52.418;20.742;2023-06-26T09:20:06;5.50;;;4.90;;
75171;SDS011;63750;52.418;20.742;2023-06-26T09:22:37;5.60;;;5.00;;
75171;SDS011;63750;52.418;20.742;2023-06-26T09:25:08;8.70;;;5.50;;
75171;SDS011;63750;52.418;20.742;2023-06-26T09:27:36;5.90;;;5.20;;
75171;SDS011;63750;52.418;20.742;2023-06-26T09:30:05;5.60;;;5.10;;
75171;SDS011;63750;52.418;20.742;2023-06-26T09:32:35;5.70;;;4.90;;
75171;SDS011;63750;52.418;20.742;2023-06-26T09:35:04;5.30;;;4.80;;
75171;SDS011;63750;52.418;20.742;2023-06-26T09:37:32;4.20;;;3.50;;
75171;SDS011;63750;52.418;20.742;2023-06-26T09:40:02;3.80;;;3.50;;
75171;SDS011;63750;52.418;20.742;2023-06-26T09:42:31;4.60;;;4.10;;
75171;SDS011;63750;52.418;20.742;2023-06-26T09:44:59;4.90;;;4.50;;
75171;SDS011;63750;52.418;20.742;2023-06-26T09:47:29;5.10;;;4.60;;
75171;SDS011;63750;52.418;20.742;2023-06-26T09:50:01;4.70;;;4.20;;
75171;SDS011;63750;52.418;20.742;2023-06-26T09:52:31;4.90;;;4.50;;
75171;SDS011;63750;52.418;20.742;2023-06-26T09:55:09;4.90;;;4.30;;
75171;SDS011;63750;52.418;20.742;2023-06-26T09:57:38;4.90;;;4.50;;
75171;SDS011;63750;52.418;20.742;2023-06-26T10:00:08;4.70;;;4.30;;
75171;SDS011;63750;52.418;20.742;2023-06-26T10:02:37;5.40;;;4.70;;
75171;SDS011;63750;52.418;20.742;2023-06-26T10:05:05;4.80;;;4.40;;
75171;SDS011;63750;52.418;20.742;2023-06-26T10:07:34;6.20;;;5.00;;
75171;SDS011;63750;52.418;20.742;2023-06-26T10:10:04;5.10;;;4.60;;
75171;SDS011;63750;52.418;20.742;2023-06-26T10:12:34;5.30;;;4.80;;
75171;SDS011;63750;52.418;20.742;2023-06-26T10:15:03;6.00;;;4.20;;
75171;SDS011;63750;52.418;20.742;2023-06-26T10:17:34;5.00;;;4.50;;
75171;SDS011;63750;52.418;20.742;2023-06-26T10:20:05;5.10;;;4.60;;
75171;SDS011;63750;52.418;20.742;2023-06-26T10:22:36;5.60;;;4.40;;
75171;SDS011;63750;52.418;20.742;2023-06-26T10:25:08;7.30;;;4.80;;
75171;SDS011;63750;52.418;20.742;2023-06-26T10:27:40;6.20;;;5.50;;
75171;SDS011;63750;52.418;20.742;2023-06-26T10:30:12;9.00;;;5.00;;
75171;SDS011;63750;52.418;20.742;2023-06-26T10:32:43;7.60;;;4.60;;
75171;SDS011;63750;52.418;20.742;2023-06-26T10:35:12;7.50;;;4.70;;
75171;SDS011;63750;52.418;20.742;2023-06-26T10:37:44;5.20;;;4.80;;
75171;SDS011;63750;52.418;20.742;2023-06-26T10:40:14;4.40;;;4.10;;
75171;SDS011;63750;52.418;20.742;2023-06-26T10:42:48;4.50;;;4.10;;
75171;SDS011;63750;52.418;20.742;2023-06-26T10:45:17;4.70;;;4.20;;
75171;SDS011;63750;52.418;20.742;2023-06-26T10:47:46;5.70;;;4.60;;
75171;SDS011;63750;52.418;20.742;2023-06-26T10:50:19;4.60;;;4.20;;
75171;SDS011;63750;52.418;20.742;2023-06-26T10:55:39;5.10;;;4.30;;
75171;SDS011;63750;52.418;20.742;2023-06-26T10:58:21;4.60;;;4.20;;
75171;SDS011;63750;52.418;20.742;2023-06-26T11:01:02;5.10;;;4.70;;
75171;SDS011;63750;52.418;20.742;2023-06-26T11:03:44;6.20;;;4.50;;
75171;SDS011;63750;52.418;20.742;2023-06-26T11:06:14;4.80;;;4.20;;
75171;SDS011;63750;52.418;20.742;2023-06-26T11:08:47;5.70;;;4.50;;
75171;SDS011;63750;52.418;20.742;2023-06-26T11:11:16;4.80;;;4.40;;
75171;SDS011;63750;52.418;20.742;2023-06-26T11:13:45;4.70;;;4.30;;
75171;SDS011;63750;52.418;20.742;2023-06-26T11:16:14;4.70;;;4.30;;
75171;SDS011;63750;52.418;20.742;2023-06-26T11:18:42;4.50;;;4.10;;
75171;SDS011;63750;52.418;20.742;2023-06-26T11:21:11;4.60;;;4.20;;
75171;SDS011;63750;52.418;20.742;2023-06-26T11:23:40;4.90;;;4.40;;
75171;SDS011;63750;52.418;20.742;2023-06-26T11:26:15;4.90;;;4.30;;
75171;SDS011;63750;52.418;20.742;2023-06-26T11:28:47;6.00;;;4.90;;
75171;SDS011;63750;52.418;20.742;2023-06-26T11:31:26;5.00;;;4.40;;
75171;SDS011;63750;52.418;20.742;2023-06-26T11:33:56;6.00;;;4.90;;
75171;SDS011;63750;52.418;20.742;2023-06-26T11:36:24;4.70;;;4.10;;
75171;SDS011;63750;52.418;20.742;2023-06-26T11:38:54;4.80;;;4.40;;
75171;SDS011;63750;52.418;20.742;2023-06-26T11:41:22;5.30;;;4.90;;
75171;SDS011;63750;52.418;20.742;2023-06-26T11:43:53;5.00;;;4.60;;
75171;SDS011;63750;52.418;20.742;2023-06-26T11:46:22;5.70;;;5.10;;
75171;SDS011;63750;52.418;20.742;2023-06-26T11:48:50;5.00;;;4.60;;
75171;SDS011;63750;52.418;20.742;2023-06-26T11:51:18;5.10;;;4.50;;
75171;SDS011;63750;52.418;20.742;2023-06-26T11:53:47;4.30;;;3.90;;
75171;SDS011;63750;52.418;20.742;2023-06-26T11:56:16;5.60;;;4.20;;
75171;SDS011;63750;52.418;20.742;2023-06-26T11:58:58;4.80;;;4.30;;
75171;SDS011;63750;52.418;20.742;2023-06-26T12:01:29;4.50;;;4.10;;
75171;SDS011;63750;52.418;20.742;2023-06-26T12:04:00;4.90;;;3.90;;
75171;SDS011;63750;52.418;20.742;2023-06-26T12:06:30;4.60;;;4.20;;
75171;SDS011;63750;52.418;20.742;2023-06-26T12:09:01;4.90;;;4.40;;
75171;SDS011;63750;52.418;20.742;2023-06-26T12:11:31;5.10;;;4.50;;
75171;SDS011;63750;52.418;20.742;2023-06-26T12:14:00;4.80;;;4.40;;
75171;SDS011;63750;52.418;20.742;2023-06-26T12:16:29;4.70;;;4.30;;
75171;SDS011;63750;52.418;20.742;2023-06-26T12:19:00;5.30;;;4.10;;
75171;SDS011;63750;52.418;20.742;2023-06-26T12:21:29;6.30;;;5.70;;
75171;SDS011;63750;52.418;20.742;2023-06-26T12:24:12;5.20;;;4.30;;
75171;SDS011;63750;52.418;20.742;2023-06-26T12:26:43;4.80;;;4.40;;
75171;SDS011;63750;52.418;20.742;2023-06-26T12:29:13;4.70;;;4.30;;
75171;SDS011;63750;52.418;20.742;2023-06-26T12:31:43;4.60;;;4.20;;
75171;SDS011;63750;52.418;20.742;2023-06-26T12:34:17;4.90;;;4.00;;
75171;SDS011;63750;52.418;20.742;2023-06-26T12:36:47;4.60;;;4.20;;
75171;SDS011;63750;52.418;20.742;2023-06-26T12:39:16;5.10;;;4.40;;
75171;SDS011;63750;52.418;20.742;2023-06-26T12:41:45;4.50;;;4.10;;
75171;SDS011;63750;52.418;20.742;2023-06-26T12:44:22;4.50;;;4.10;;
75171;SDS011;63750;52.418;20.742;2023-06-26T12:46:53;4.30;;;3.90;;
75171;SDS011;63750;52.418;20.742;2023-06-26T12:49:30;4.60;;;4.10;;
75171;SDS011;63750;52.418;20.742;2023-06-26T12:52:00;4.90;;;4.30;;
75171;SDS011;63750;52.418;20.742;2023-06-26T12:54:31;4.70;;;4.30;;
75171;SDS011;63750;52.418;20.742;2023-06-26T12:56:59;4.00;;;3.60;;
75171;SDS011;63750;52.418;20.742;2023-06-26T12:59:27;4.60;;;4.10;;
75171;SDS011;63750;52.418;20.742;2023-06-26T13:01:55;4.70;;;4.20;;
75171;SDS011;63750;52.418;20.742;2023-06-26T13:04:24;4.80;;;4.10;;
75171;SDS011;63750;52.418;20.742;2023-06-26T13:06:52;4.90;;;4.50;;
75171;SDS011;63750;52.418;20.742;2023-06-26T13:09:21;4.20;;;3.90;;
75171;SDS011;63750;52.418;20.742;2023-06-26T13:11:49;4.70;;;4.30;;
75171;SDS011;63750;52.418;20.742;2023-06-26T13:14:17;5.00;;;4.50;;
75171;SDS011;63750;52.418;20.742;2023-06-26T13:16:46;4.40;;;4.00;;
75171;SDS011;63750;52.418;20.742;2023-06-26T13:19:14;4.30;;;3.90;;
75171;SDS011;63750;52.418;20.742;2023-06-26T13:21:43;4.70;;;4.30;;
75171;SDS011;63750;52.418;20.742;2023-06-26T13:24:11;4.70;;;4.10;;
75171;SDS011;63750;52.418;20.742;2023-06-26T13:26:39;4.40;;;4.00;;
75171;SDS011;63750;52.418;20.742;2023-06-26T13:29:07;6.20;;;4.20;;
75171;SDS011;63750;52.418;20.742;2023-06-26T13:31:36;4.70;;;4.30;;
75171;SDS011;63750;52.418;20.742;2023-06-26T13:34:04;4.80;;;4.30;;
75171;SDS011;63750;52.418;20.742;2023-06-26T13:36:32;4.60;;;4.20;;
75171;SDS011;63750;52.418;20.742;2023-06-26T13:39:00;4.60;;;4.20;;
75171;SDS011;63750;52.418;20.742;2023-06-26T13:41:28;5.00;;;4.50;;
75171;SDS011;63750;52.418;20.742;2023-06-26T13:43:56;4.50;;;4.10;;
75171;SDS011;63750;52.418;20.742;2023-06-26T13:46:24;4.50;;;4.10;;
75171;SDS011;63750;52.418;20.742;2023-06-26T13:48:52;4.40;;;4.00;;
75171;SDS011;63750;52.418;20.742;2023-06-26T13:51:20;5.00;;;4.50;;
75171;SDS011;63750;52.418;20.742;2023-06-26T13:53:49;4.60;;;4.20;;
75171;SDS011;63750;52.418;20.742;2023-06-26T13:56:17;4.80;;;4.30;;
75171;SDS011;63750;52.418;20.742;2023-06-26T13:58:45;4.50;;;4.10;;
75171;SDS011;63750;52.418;20.742;2023-06-26T14:01:13;4.60;;;4.20;;
75171;SDS011;63750;52.418;20.742;2023-06-26T14:03:41;4.60;;;3.80;;
75171;SDS011;63750;52.418;20.742;2023-06-26T14:06:09;5.20;;;4.70;;
75171;SDS011;63750;52.418;20.742;2023-06-26T14:08:37;5.30;;;4.80;;
75171;SDS011;63750;52.418;20.742;2023-06-26T14:11:06;5.00;;;4.60;;
75171;SDS011;63750;52.418;20.742;2023-06-26T14:13:34;5.70;;;5.20;;
75171;SDS011;63750;52.418;20.742;2023-06-26T14:16:02;4.70;;;4.30;;
75171;SDS011;63750;52.418;20.742;2023-06-26T14:18:31;5.00;;;4.50;;
75171;SDS011;63750;52.418;20.742;2023-06-26T14:20:59;5.50;;;4.80;;
75171;SDS011;63750;52.418;20.742;2023-06-26T14:23:27;5.10;;;4.60;;
75171;SDS011;63750;52.418;20.742;2023-06-26T14:25:55;6.40;;;5.00;;
75171;SDS011;63750;52.418;20.742;2023-06-26T14:28:23;5.40;;;4.80;;
75171;SDS011;63750;52.418;20.742;2023-06-26T14:30:52;4.60;;;4.20;;
75171;SDS011;63750;52.418;20.742;2023-06-26T14:33:20;5.50;;;5.00;;
75171;SDS011;63750;52.418;20.742;2023-06-26T14:35:48;5.30;;;4.80;;
75171;SDS011;63750;52.418;20.742;2023-06-26T14:38:16;5.40;;;4.90;;
75171;SDS011;63750;52.418;20.742;2023-06-26T14:40:44;4.90;;;4.40;;